Time;durP1;ratioP1;P1;durP2;ratioP2;P2;SDS_P1;SDS_P2;PMS_P1;PMS_P2;Temp;Humidity;BMP_temperature;BMP_pressure;BME280_temperature;BME280_humidity;BME280_pressure;Samples;Min_cycle;Max_cycle;Signal;HPM_P1;HPM_P2
2021/10/21 00:01:02;;;;;;;7.53;4.75;;;24.60;42.80;;;;;;6157965;28;80429;-71
2021/10/21 00:04:02;;;;;;;7.50;5.05;;;24.60;42.80;;;;;;6140971;28;81704;-71
2021/10/21 00:07:03;;;;;;;6.93;4.65;;;24.50;42.80;;;;;;6142572;28;81405;-72
2021/10/21 00:10:03;;;;;;;7.75;5.18;;;24.50;42.80;;;;;;6157612;28;81305;-72
2021/10/21 00:13:04;;;;;;;5.68;4.55;;;24.60;42.80;;;;;;6157124;28;81061;-72
2021/10/21 00:16:04;;;;;;;7.10;5.13;;;24.60;42.80;;;;;;6152148;28;81204;-71
2021/10/21 00:19:05;;;;;;;7.45;5.20;;;24.60;42.70;;;;;;6154772;28;81521;-72
2021/10/21 00:22:06;;;;;;;5.80;4.53;;;24.60;42.70;;;;;;6140578;28;87873;-72
2021/10/21 00:25:06;;;;;;;7.82;4.93;;;24.60;42.60;;;;;;6158144;28;80287;-71
2021/10/21 00:28:07;;;;;;;5.45;4.28;;;24.50;42.50;;;;;;6138679;28;81774;-71
2021/10/21 00:31:07;;;;;;;7.20;4.90;;;24.60;42.60;;;;;;6156816;28;80288;-72
2021/10/21 00:34:08;;;;;;;5.78;4.35;;;24.60;42.70;;;;;;6156806;28;80270;-71
2021/10/21 00:37:08;;;;;;;7.13;4.50;;;24.60;42.70;;;;;;6159834;28;81405;-72
2021/10/21 00:40:09;;;;;;;6.60;4.70;;;24.60;42.80;;;;;;6160328;28;81812;-72
2021/10/21 00:43:09;;;;;;;6.32;4.40;;;24.60;42.80;;;;;;6163631;28;80185;-72
2021/10/21 00:46:10;;;;;;;8.02;4.72;;;24.60;42.90;;;;;;6143023;28;80531;-72
2021/10/21 00:49:10;;;;;;;5.13;3.92;;;24.60;42.90;;;;;;6160504;28;80357;-71
2021/10/21 00:52:11;;;;;;;6.82;5.00;;;24.60;43.00;;;;;;6161814;28;80360;-70
2021/10/21 00:55:12;;;;;;;5.50;4.25;;;24.60;43.10;;;;;;6160660;28;80417;-71
2021/10/21 00:58:13;;;;;;;6.78;4.07;;;24.60;43.10;;;;;;6161063;28;80886;-72
2021/10/21 01:01:13;;;;;;;5.63;4.20;;;24.60;43.10;;;;;;6161191;28;81419;-72
2021/10/21 01:04:14;;;;;;;6.68;4.45;;;24.50;43.00;;;;;;6160249;28;80265;-71
2021/10/21 01:07:14;;;;;;;5.70;4.57;;;24.50;43.00;;;;;;6160408;28;80904;-71
2021/10/21 01:10:15;;;;;;;5.47;4.22;;;24.60;43.00;;;;;;6170804;28;80542;-71
2021/10/21 01:13:15;;;;;;;5.93;4.20;;;24.50;43.10;;;;;;6159443;28;80728;-71
2021/10/21 01:16:16;;;;;;;8.77;4.68;;;24.50;43.00;;;;;;6160907;28;80937;-71
2021/10/21 01:19:16;;;;;;;6.47;4.43;;;24.50;42.90;;;;;;6149210;28;80319;-72
2021/10/21 01:22:17;;;;;;;7.95;5.50;;;24.50;42.90;;;;;;6159582;28;81389;-71
2021/10/21 01:25:17;;;;;;;7.97;5.32;;;24.50;43.00;;;;;;6160127;28;80912;-70
2021/10/21 01:28:18;;;;;;;4.80;4.28;;;24.50;43.10;;;;;;6160108;28;80690;-71
2021/10/21 01:31:18;;;;;;;7.82;5.28;;;24.50;43.00;;;;;;6159326;28;80256;-71
2021/10/21 01:34:19;;;;;;;7.40;5.07;;;24.50;43.00;;;;;;6159061;28;81351;-73
2021/10/21 01:37:20;;;;;;;5.68;4.50;;;24.50;43.00;;;;;;6159506;28;80358;-70
2021/10/21 01:40:20;;;;;;;6.72;4.85;;;24.50;43.00;;;;;;6159502;28;80619;-71
2021/10/21 01:43:21;;;;;;;8.85;4.70;;;24.50;43.10;;;;;;6140147;28;86359;-70
2021/10/21 01:46:21;;;;;;;6.93;4.47;;;24.50;43.00;;;;;;6159457;28;81476;-71
2021/10/21 01:49:22;;;;;;;5.90;4.60;;;24.50;43.10;;;;;;6159601;28;80997;-70
2021/10/21 01:52:22;;;;;;;7.05;4.93;;;24.50;43.00;;;;;;6160348;28;81381;-71
2021/10/21 01:55:23;;;;;;;7.45;4.93;;;24.50;43.00;;;;;;6160055;28;81557;-70
2021/10/21 01:58:24;;;;;;;10.05;4.75;;;24.50;43.00;;;;;;6159490;28;80227;-70
2021/10/21 02:01:24;;;;;;;6.38;4.70;;;24.50;43.00;;;;;;6159989;28;81363;-71
2021/10/21 02:04:25;;;;;;;6.55;4.57;;;24.50;42.90;;;;;;6159192;28;80054;-71
2021/10/21 02:07:25;;;;;;;5.35;4.22;;;24.50;42.90;;;;;;6158733;28;80847;-72
2021/10/21 02:10:26;;;;;;;6.28;4.30;;;24.50;43.00;;;;;;6158756;28;86790;-71
2021/10/21 02:13:26;;;;;;;6.07;4.05;;;24.50;43.10;;;;;;6161241;28;80971;-71
2021/10/21 02:16:27;;;;;;;5.53;4.30;;;24.50;43.20;;;;;;6164836;28;81748;-71
2021/10/21 02:19:27;;;;;;;5.72;4.40;;;24.50;43.30;;;;;;6159727;28;80500;-71
2021/10/21 02:22:28;;;;;;;6.32;3.75;;;24.50;43.10;;;;;;6158431;28;80721;-71
2021/10/21 02:25:28;;;;;;;5.93;4.53;;;24.50;43.00;;;;;;6159724;28;80360;-71
2021/10/21 02:28:29;;;;;;;4.95;4.38;;;24.60;43.10;;;;;;6158068;28;81158;-70
2021/10/21 02:31:29;;;;;;;5.78;4.53;;;24.60;43.20;;;;;;6158526;28;80209;-70
2021/10/21 02:34:30;;;;;;;5.97;3.85;;;24.50;43.60;;;;;;6141037;28;80527;-71
2021/10/21 02:37:30;;;;;;;5.15;3.97;;;24.50;43.30;;;;;;6158189;28;81493;-71
2021/10/21 02:40:31;;;;;;;4.70;4.00;;;24.50;43.40;;;;;;6158327;28;80815;-70
2021/10/21 02:43:31;;;;;;;5.03;4.13;;;24.50;43.70;;;;;;6157778;28;80637;-70
2021/10/21 02:46:32;;;;;;;5.15;3.92;;;24.50;44.50;;;;;;6160673;28;80655;-71
2021/10/21 02:49:32;;;;;;;5.15;4.22;;;24.60;44.10;;;;;;6160755;28;80429;-71
2021/10/21 02:52:33;;;;;;;6.93;3.83;;;24.60;44.30;;;;;;6159439;28;81672;-70
2021/10/21 02:55:33;;;;;;;4.80;4.30;;;24.60;44.30;;;;;;6155366;28;81483;-70
2021/10/21 02:58:34;;;;;;;5.78;4.38;;;24.60;44.40;;;;;;6144814;28;82722;-71
2021/10/21 03:01:34;;;;;;;6.03;4.50;;;24.60;44.40;;;;;;6158653;28;80641;-71
2021/10/21 03:04:35;;;;;;;6.07;4.53;;;24.70;44.50;;;;;;6160416;28;80375;-71
2021/10/21 03:07:35;;;;;;;6.22;4.07;;;24.70;44.30;;;;;;6140664;28;80312;-71
2021/10/21 03:10:37;;;;;;;6.47;4.38;;;24.70;44.30;;;;;;6160154;28;80883;-70
2021/10/21 03:13:38;;;;;;;5.68;4.15;;;24.70;44.30;;;;;;6158327;28;80776;-71
2021/10/21 03:16:39;;;;;;;5.25;4.00;;;24.70;44.30;;;;;;6158867;28;80366;-72
2021/10/21 03:19:39;;;;;;;5.68;4.22;;;24.70;44.10;;;;;;6157492;28;80301;-69
2021/10/21 03:22:40;;;;;;;6.60;4.28;;;24.80;44.20;;;;;;6162496;28;80805;-74
2021/10/21 03:25:40;;;;;;;5.88;4.30;;;24.80;44.30;;;;;;6158606;28;80917;-73
2021/10/21 03:28:41;;;;;;;6.07;4.07;;;24.80;44.30;;;;;;6159708;28;80757;-76
2021/10/21 03:31:41;;;;;;;7.82;5.05;;;24.80;44.30;;;;;;6140882;28;80891;-74
2021/10/21 03:34:42;;;;;;;7.20;4.35;;;24.90;44.40;;;;;;6158207;28;81609;-74
2021/10/21 03:37:42;;;;;;;7.35;4.63;;;24.90;44.40;;;;;;6157697;28;80996;-77
2021/10/21 03:40:43;;;;;;;4.65;3.72;;;24.90;44.30;;;;;;6157707;28;81581;-70
2021/10/21 03:43:44;;;;;;;5.97;4.25;;;24.90;44.40;;;;;;6158044;28;80610;-66
2021/10/21 03:46:44;;;;;;;4.78;3.85;;;24.90;44.40;;;;;;6157178;28;80896;-66
2021/10/21 03:49:45;;;;;;;6.75;4.57;;;24.80;44.30;;;;;;6161161;28;82067;-63
2021/10/21 03:52:45;;;;;;;10.68;4.43;;;24.90;44.40;;;;;;6160266;28;80940;-65
2021/10/21 03:55:46;;;;;;;6.13;4.10;;;24.90;44.50;;;;;;6157365;28;81237;-65
2021/10/21 03:58:46;;;;;;;9.65;4.88;;;24.90;44.90;;;;;;6156694;28;80856;-65
2021/10/21 04:01:47;;;;;;;8.50;4.80;;;24.90;45.30;;;;;;6157210;28;81435;-64
2021/10/21 04:04:47;;;;;;;9.93;5.70;;;24.90;45.20;;;;;;6158510;28;80696;-65
2021/10/21 04:07:48;;;;;;;15.70;6.38;;;24.90;45.10;;;;;;6156843;28;80867;-65
2021/10/21 04:10:49;;;;;;;7.90;5.70;;;24.90;44.90;;;;;;6161823;28;80937;-66
2021/10/21 04:13:49;;;;;;;10.40;6.20;;;24.90;44.90;;;;;;6160504;28;80880;-65
2021/10/21 04:16:50;;;;;;;10.65;6.60;;;24.80;44.80;;;;;;6160690;28;80747;-66
2021/10/21 04:19:50;;;;;;;11.05;7.15;;;24.80;44.70;;;;;;6161576;28;80853;-66
2021/10/21 04:22:51;;;;;;;14.32;6.82;;;24.70;44.70;;;;;;6162656;28;80251;-67
2021/10/21 04:25:51;;;;;;;9.98;6.25;;;24.70;44.60;;;;;;6162205;28;80448;-68
2021/10/21 04:28:52;;;;;;;13.63;7.57;;;24.70;44.40;;;;;;6160470;28;81181;-68
2021/10/21 04:31:52;;;;;;;17.20;8.00;;;24.70;45.10;;;;;;6143758;28;81952;-68
2021/10/21 04:34:53;;;;;;;17.15;9.35;;;24.70;45.30;;;;;;6157352;28;80537;-68
2021/10/21 04:37:53;;;;;;;20.73;10.30;;;24.80;45.80;;;;;;6161276;28;80337;-70
2021/10/21 04:40:54;;;;;;;16.75;9.95;;;24.80;46.10;;;;;;6160110;28;84686;-69
2021/10/21 04:43:54;;;;;;;20.50;9.80;;;24.80;46.30;;;;;;6150694;28;82740;-67
2021/10/21 04:46:55;;;;;;;16.92;10.23;;;24.80;46.90;;;;;;6160030;28;80350;-65
2021/10/21 04:49:55;;;;;;;18.40;9.77;;;24.80;46.70;;;;;;6157637;28;84029;-68
2021/10/21 04:52:56;;;;;;;19.33;9.05;;;24.80;46.70;;;;;;6142320;28;83044;-66
2021/10/21 04:55:56;;;;;;;15.30;8.80;;;24.90;47.10;;;;;;6160891;28;80403;-67
2021/10/21 04:58:57;;;;;;;23.80;8.52;;;24.90;47.10;;;;;;6161370;28;80674;-67
2021/10/21 05:01:57;;;;;;;18.67;8.93;;;24.90;47.00;;;;;;6158748;28;81174;-70
2021/10/21 05:04:58;;;;;;;15.20;8.52;;;24.90;46.70;;;;;;6144145;28;81332;-69
2021/10/21 05:07:59;;;;;;;14.13;8.25;;;24.90;46.60;;;;;;6160766;28;80664;-66
2021/10/21 05:10:59;;;;;;;16.98;8.52;;;25.00;46.60;;;;;;6161494;28;81070;-63
2021/10/21 05:14:00;;;;;;;13.57;7.65;;;25.00;46.30;;;;;;6159507;28;80205;-68
2021/10/21 05:17:00;;;;;;;13.98;8.63;;;25.00;46.30;;;;;;6159953;28;80676;-69
2021/10/21 05:20:01;;;;;;;10.55;7.07;;;25.00;46.80;;;;;;6159294;28;80402;-65
2021/10/21 05:23:01;;;;;;;16.05;7.25;;;24.90;45.80;;;;;;6143662;28;81270;-64
2021/10/21 05:26:02;;;;;;;15.00;6.93;;;24.90;45.90;;;;;;6159482;28;81019;-67
2021/10/21 05:29:02;;;;;;;12.75;6.80;;;24.90;45.30;;;;;;6149275;28;80539;-66
2021/10/21 05:32:07;;;;;;;18.48;6.75;;;24.90;45.40;;;;;;6158370;28;80494;-68
2021/10/21 05:35:07;;;;;;;13.13;7.50;;;24.90;45.40;;;;;;6142545;28;81799;-67
2021/10/21 05:38:08;;;;;;;20.08;7.15;;;24.90;45.30;;;;;;6159609;28;80447;-64
2021/10/21 05:41:08;;;;;;;12.82;7.50;;;24.90;45.70;;;;;;6155382;28;81031;-69
2021/10/21 05:44:09;;;;;;;13.13;7.32;;;24.90;46.00;;;;;;6158488;28;80437;-66
2021/10/21 05:47:09;;;;;;;14.80;7.90;;;24.90;46.10;;;;;;6157498;28;80830;-68
2021/10/21 05:50:10;;;;;;;14.38;7.43;;;24.90;46.30;;;;;;6148560;28;80380;-69
2021/10/21 05:53:10;;;;;;;11.15;7.07;;;24.90;45.90;;;;;;6154386;28;80374;-68
2021/10/21 05:56:11;;;;;;;14.30;6.40;;;24.90;45.70;;;;;;6159714;28;87406;-68
2021/10/21 05:59:11;;;;;;;17.55;6.82;;;24.90;45.70;;;;;;6141350;28;80887;-68
2021/10/21 06:02:12;;;;;;;15.23;6.75;;;24.90;45.70;;;;;;6146436;28;81257;-70
2021/10/21 06:05:13;;;;;;;13.68;7.00;;;24.90;45.90;;;;;;6161822;28;82774;-70
2021/10/21 06:08:15;;;;;;;13.75;6.90;;;24.90;46.00;;;;;;6159116;28;81510;-69
2021/10/21 06:11:15;;;;;;;12.23;6.30;;;24.90;45.60;;;;;;6162769;28;82333;-69
2021/10/21 06:14:16;;;;;;;9.23;6.13;;;24.90;45.60;;;;;;6159942;28;80567;-68
2021/10/21 06:17:17;;;;;;;18.15;6.88;;;24.90;45.60;;;;;;6140894;28;80527;-69
2021/10/21 06:20:17;;;;;;;11.90;6.80;;;24.90;45.50;;;;;;6159053;28;81193;-69
2021/10/21 06:23:18;;;;;;;15.27;6.97;;;24.90;45.40;;;;;;6158506;28;80437;-69
2021/10/21 06:26:18;;;;;;;12.48;7.00;;;24.90;45.70;;;;;;6158288;28;80614;-68
2021/10/21 06:29:19;;;;;;;13.40;6.63;;;24.90;45.50;;;;;;6158271;28;80872;-67
2021/10/21 06:32:19;;;;;;;15.13;6.90;;;24.90;45.80;;;;;;6139419;28;80697;-67
2021/10/21 06:35:20;;;;;;;11.05;6.68;;;24.90;45.30;;;;;;6147299;28;81444;-68
2021/10/21 06:38:21;;;;;;;10.00;6.28;;;24.90;45.30;;;;;;6156997;28;80528;-68
2021/10/21 06:41:21;;;;;;;9.18;6.32;;;24.90;45.40;;;;;;6157619;28;81061;-71
2021/10/21 06:44:22;;;;;;;12.52;8.38;;;24.80;44.60;;;;;;6155199;28;80835;-69
2021/10/21 06:47:22;;;;;;;13.57;8.52;;;24.70;43.20;;;;;;6161119;28;81257;-67
2021/10/21 06:50:23;;;;;;;14.63;8.32;;;24.30;42.00;;;;;;6163815;28;81405;-71
2021/10/21 06:53:23;;;;;;;12.77;7.75;;;24.00;42.70;;;;;;6145278;28;81569;-73
2021/10/21 06:56:25;;;;;;;14.30;7.20;;;23.90;42.40;;;;;;6158543;28;80676;-72
2021/10/21 06:59:26;;;;;;;14.52;8.20;;;24.00;42.60;;;;;;6158976;28;81068;-72
2021/10/21 07:02:28;;;;;;;13.10;7.28;;;23.90;42.40;;;;;;6151744;28;80777;-72
2021/10/21 07:05:32;;;;;;;13.30;7.97;;;23.80;42.40;;;;;;6152346;28;80523;-70
2021/10/21 07:08:33;;;;;;;12.40;7.78;;;23.50;42.50;;;;;;6136830;28;80399;-69
2021/10/21 07:11:33;;;;;;;10.48;7.97;;;23.60;42.60;;;;;;6152990;28;80466;-70
2021/10/21 07:14:34;;;;;;;11.82;8.77;;;23.50;42.40;;;;;;6137554;28;81660;-70
2021/10/21 07:17:34;;;;;;;11.23;7.65;;;23.50;42.70;;;;;;6154988;28;81593;-71
2021/10/21 07:20:35;;;;;;;11.32;8.30;;;23.50;42.70;;;;;;6156735;28;80319;-69
2021/10/21 07:23:35;;;;;;;10.55;7.93;;;23.60;42.50;;;;;;6153379;28;80333;-70
2021/10/21 07:26:36;;;;;;;11.77;7.85;;;23.40;42.20;;;;;;6155592;28;87126;-71
2021/10/21 07:29:36;;;;;;;11.50;8.48;;;23.10;42.50;;;;;;6158829;28;80942;-72
2021/10/21 07:32:38;;;;;;;11.32;7.82;;;23.10;42.60;;;;;;6122920;28;81882;-70
2021/10/21 07:35:39;;;;;;;11.32;7.90;;;23.00;42.70;;;;;;6157053;28;80688;-72
2021/10/21 07:38:40;;;;;;;10.38;7.60;;;23.20;42.60;;;;;;6126150;28;81533;-71
2021/10/21 07:41:40;;;;;;;12.48;7.10;;;23.30;42.60;;;;;;6162815;28;80496;-71
2021/10/21 07:44:41;;;;;;;9.57;7.15;;;23.40;42.70;;;;;;6179025;28;87669;-70
2021/10/21 07:47:41;;;;;;;10.68;7.35;;;23.40;42.60;;;;;;6168778;28;80545;-71
2021/10/21 07:50:42;;;;;;;8.57;7.25;;;23.50;42.30;;;;;;6147815;28;80503;-71
2021/10/21 07:53:43;;;;;;;10.50;7.65;;;23.60;42.00;;;;;;6156634;28;80825;-70
2021/10/21 07:56:43;;;;;;;17.65;8.57;;;23.60;42.20;;;;;;6156169;28;81199;-71
2021/10/21 07:59:44;;;;;;;13.07;7.22;;;23.50;42.00;;;;;;6166093;28;81452;-71
2021/10/21 08:02:45;;;;;;;9.25;8.05;;;23.60;42.10;;;;;;6160946;28;80432;-66
2021/10/21 08:05:45;;;;;;;10.30;7.00;;;24.00;42.00;;;;;;6149077;28;83220;-69
2021/10/21 08:08:46;;;;;;;11.60;7.45;;;24.10;41.70;;;;;;6164241;28;81853;-66
2021/10/21 08:11:47;;;;;;;11.30;8.18;;;24.40;42.20;;;;;;6157583;28;80544;-68
2021/10/21 08:14:48;;;;;;;15.30;7.38;;;24.50;41.20;;;;;;6156924;28;81501;-75
2021/10/21 08:17:49;;;;;;;10.52;7.80;;;24.60;41.20;;;;;;6161903;28;81203;-76
2021/10/21 08:20:50;;;;;;;10.75;7.43;;;24.70;41.10;;;;;;6143093;28;82092;-75
2021/10/21 08:23:53;;;;;;;10.93;7.35;;;24.80;41.00;;;;;;6156779;28;80622;-74
2021/10/21 08:26:54;;;;;;;10.38;6.72;;;24.80;40.80;;;;;;6159528;28;80937;-72
2021/10/21 08:29:54;;;;;;;9.10;6.47;;;24.90;40.70;;;;;;6155386;28;80727;-77
2021/10/21 08:32:56;;;;;;;11.43;7.57;;;25.00;40.80;;;;;;6161770;28;81126;-76
2021/10/21 08:35:57;;;;;;;9.52;8.50;;;25.10;40.60;;;;;;6156168;28;80500;-74
2021/10/21 08:38:57;;;;;;;10.45;8.18;;;24.80;40.50;;;;;;6159103;28;80788;-72
2021/10/21 08:41:58;;;;;;;12.23;7.93;;;24.70;40.50;;;;;;6159234;28;80746;-73
2021/10/21 08:44:58;;;;;;;11.30;8.18;;;24.80;41.30;;;;;;6142199;28;81188;-73
2021/10/21 08:48:01;;;;;;;14.40;8.30;;;24.70;40.70;;;;;;6154983;28;80829;-73
2021/10/21 08:51:05;;;;;;;9.32;8.13;;;24.90;40.90;;;;;;6153317;28;83735;-72
2021/10/21 08:54:05;;;;;;;12.13;7.63;;;25.00;41.10;;;;;;6154691;28;81632;-71
2021/10/21 08:57:06;;;;;;;17.20;7.90;;;25.10;41.60;;;;;;6136765;28;83277;-71
2021/10/21 09:00:06;;;;;;;12.57;7.72;;;25.20;40.80;;;;;;6146964;28;80693;-73
2021/10/21 09:03:14;;;;;;;10.18;8.07;;;25.30;40.70;;;;;;6141604;28;80835;-73
2021/10/21 09:07:54;;;;;;;11.68;8.18;;;25.30;40.80;;;;;;6156899;28;80778;-72
2021/10/21 09:09:41;;;;;;;10.43;7.90;;;25.40;40.80;;;;;;6152130;28;81560;-72
2021/10/21 09:12:42;;;;;;;9.77;7.43;;;25.50;41.30;;;;;;6158840;28;80629;-71
2021/10/21 09:15:42;;;;;;;10.27;8.18;;;25.60;40.70;;;;;;6143378;28;83161;-72
2021/10/21 09:18:43;;;;;;;12.23;7.60;;;25.70;40.90;;;;;;6140258;28;81751;-71
2021/10/21 09:21:44;;;;;;;10.23;7.13;;;25.80;40.90;;;;;;6138767;28;82119;-72
2021/10/21 09:24:44;;;;;;;10.40;7.22;;;25.90;41.10;;;;;;6158777;28;80916;-71
2021/10/21 09:27:45;;;;;;;8.35;6.90;;;25.90;41.10;;;;;;6142628;28;80823;-72
2021/10/21 09:30:46;;;;;;;10.88;7.53;;;26.00;41.40;;;;;;6157785;28;81656;-72
2021/10/21 09:33:46;;;;;;;12.65;7.28;;;26.10;41.60;;;;;;6159028;28;80916;-71
2021/10/21 09:36:47;;;;;;;11.50;6.88;;;26.10;41.60;;;;;;6162461;28;80614;-72
2021/10/21 09:39:47;;;;;;;9.40;6.80;;;26.10;41.60;;;;;;6142943;28;83407;-75
2021/10/21 09:42:48;;;;;;;10.55;7.30;;;26.10;41.60;;;;;;6159553;28;80686;-73
2021/10/21 09:45:51;;;;;;;12.60;7.13;;;26.10;41.50;;;;;;6139248;28;81796;-73
2021/10/21 09:48:51;;;;;;;11.75;7.80;;;26.00;41.30;;;;;;6158550;28;81424;-74
2021/10/21 09:51:52;;;;;;;11.68;7.32;;;26.00;41.50;;;;;;6152374;28;81209;-72
2021/10/21 09:54:53;;;;;;;11.90;6.82;;;26.10;41.60;;;;;;6158073;28;80482;-69
2021/10/21 09:57:53;;;;;;;13.00;7.05;;;26.10;41.80;;;;;;6157894;28;81002;-70
2021/10/21 10:00:54;;;;;;;13.73;8.02;;;26.30;41.60;;;;;;6161767;28;81611;-69
2021/10/21 10:03:54;;;;;;;10.05;6.63;;;26.30;41.60;;;;;;6140287;28;81350;-69
2021/10/21 10:06:58;;;;;;;9.85;5.70;;;26.30;41.70;;;;;;6159650;28;80493;-68
2021/10/21 10:09:59;;;;;;;9.15;5.80;;;26.30;41.10;;;;;;6158329;28;80399;-72
2021/10/21 10:13:00;;;;;;;11.23;6.03;;;26.20;41.10;;;;;;6161144;28;81077;-68
2021/10/21 10:16:01;;;;;;;10.02;6.30;;;26.20;41.20;;;;;;6158460;28;81396;-67
2021/10/21 10:19:01;;;;;;;7.32;6.03;;;26.10;40.80;;;;;;6155653;28;80380;-67
2021/10/21 10:22:02;;;;;;;10.02;7.55;;;26.10;41.20;;;;;;6157122;28;80864;-67
2021/10/21 10:25:02;;;;;;;16.50;7.88;;;26.10;41.10;;;;;;6159791;28;80707;-66
2021/10/21 10:28:04;;;;;;;21.52;10.73;;;26.10;41.60;;;;;;6161067;28;80740;-67
2021/10/21 10:31:04;;;;;;;21.00;10.27;;;26.10;41.60;;;;;;6160625;28;83494;-68
2021/10/21 10:34:05;;;;;;;16.63;8.43;;;26.10;41.80;;;;;;6152375;28;83101;-68
2021/10/21 10:37:05;;;;;;;15.15;7.88;;;26.00;41.40;;;;;;6164265;28;84021;-68
2021/10/21 10:40:07;;;;;;;12.43;7.78;;;25.90;41.50;;;;;;6139862;28;82488;-68
2021/10/21 10:43:08;;;;;;;14.80;7.65;;;25.90;41.30;;;;;;6154733;28;80990;-69
2021/10/21 10:46:10;;;;;;;10.40;6.38;;;25.70;41.60;;;;;;6169505;28;80797;-68
2021/10/21 10:49:13;;;;;;;11.18;6.63;;;25.70;41.80;;;;;;6155888;28;80486;-69
2021/10/21 10:52:14;;;;;;;11.75;6.25;;;25.60;41.70;;;;;;6144938;28;80596;-73
2021/10/21 10:55:14;;;;;;;17.02;6.88;;;25.50;41.90;;;;;;6139772;28;82981;-72
2021/10/21 10:58:15;;;;;;;20.08;7.00;;;25.50;42.10;;;;;;6157485;28;80561;-73
2021/10/21 11:01:15;;;;;;;7.68;6.22;;;25.50;41.90;;;;;;6158698;28;81074;-71
2021/10/21 11:04:16;;;;;;;9.23;6.28;;;25.40;42.30;;;;;;6159754;28;80481;-71
2021/10/21 11:07:16;;;;;;;12.07;7.03;;;25.30;42.20;;;;;;6172121;28;80594;-69
2021/10/21 11:10:22;;;;;;;8.57;6.47;;;25.00;42.60;;;;;;6156624;28;80850;-70
2021/10/21 11:13:23;;;;;;;7.95;5.97;;;24.80;42.90;;;;;;6156337;28;84912;-70
2021/10/21 11:16:23;;;;;;;7.72;5.18;;;24.80;42.80;;;;;;6157781;28;82763;-70
2021/10/21 11:19:24;;;;;;;10.38;5.85;;;24.60;42.90;;;;;;6159062;28;80952;-69
2021/10/21 11:22:24;;;;;;;8.38;5.22;;;24.60;43.10;;;;;;6140534;28;81665;-70
2021/10/21 11:25:25;;;;;;;9.52;5.82;;;24.70;43.10;;;;;;6159703;28;80555;-63
2021/10/21 11:28:25;;;;;;;7.03;5.13;;;24.80;42.90;;;;;;6158215;28;81040;-68
2021/10/21 11:31:26;;;;;;;13.18;5.95;;;24.70;43.00;;;;;;6157468;28;80619;-68
2021/10/21 11:34:26;;;;;;;8.52;5.03;;;24.80;43.10;;;;;;6156864;28;80735;-68
2021/10/21 11:37:27;;;;;;;6.80;5.18;;;24.90;42.80;;;;;;6156486;28;81522;-68
2021/10/21 11:40:27;;;;;;;9.95;5.05;;;24.80;42.70;;;;;;6156089;28;80751;-67
2021/10/21 11:43:35;;;;;;;10.00;4.80;;;24.90;42.70;;;;;;6163212;28;80442;-68
2021/10/21 11:46:36;;;;;;;7.07;5.15;;;24.80;42.70;;;;;;6158710;28;80752;-68
2021/10/21 11:49:37;;;;;;;15.02;5.88;;;24.80;42.70;;;;;;6158565;28;82274;-67
2021/10/21 11:52:38;;;;;;;7.82;4.68;;;24.70;42.90;;;;;;6154268;28;81111;-68
2021/10/21 11:55:38;;;;;;;7.28;4.63;;;24.70;42.70;;;;;;6158911;28;81633;-68
2021/10/21 11:58:45;;;;;;;8.70;5.53;;;24.60;42.80;;;;;;6157461;28;80396;-67
2021/10/21 12:01:45;;;;;;;5.40;4.82;;;24.60;43.00;;;;;;6141795;28;82267;-67
2021/10/21 12:04:46;;;;;;;12.55;4.90;;;24.30;42.80;;;;;;6140470;28;81235;-68
2021/10/21 12:07:46;;;;;;;5.70;4.43;;;24.10;43.20;;;;;;6149828;28;81200;-67
2021/10/21 12:10:49;;;;;;;8.40;4.80;;;24.10;43.10;;;;;;6157744;28;80565;-67
2021/10/21 12:13:50;;;;;;;9.35;4.20;;;24.10;43.00;;;;;;6155766;28;81030;-67
2021/10/21 12:16:51;;;;;;;5.18;4.13;;;24.00;43.10;;;;;;6140191;28;83292;-68
2021/10/21 12:19:51;;;;;;;10.80;5.15;;;24.10;43.00;;;;;;6139190;28;80197;-68
2021/10/21 12:22:52;;;;;;;5.28;4.35;;;24.00;43.00;;;;;;6158343;28;81170;-68
2021/10/21 12:25:53;;;;;;;7.00;4.53;;;24.00;43.00;;;;;;6156555;28;80366;-68
2021/10/21 12:28:53;;;;;;;7.57;4.95;;;24.00;43.20;;;;;;6157757;28;82748;-68
2021/10/21 12:31:54;;;;;;;5.47;4.18;;;23.90;43.00;;;;;;6159965;28;81461;-68
2021/10/21 12:34:55;;;;;;;5.88;4.63;;;24.00;43.00;;;;;;6160332;28;80993;-68
2021/10/21 12:37:55;;;;;;;4.68;3.92;;;23.80;42.90;;;;;;6159368;28;80899;-68
2021/10/21 12:40:56;;;;;;;5.55;3.90;;;23.20;41.90;;;;;;6157464;28;81785;-67
2021/10/21 12:43:56;;;;;;;7.68;4.03;;;22.80;42.20;;;;;;6159761;28;80637;-68
2021/10/21 12:46:57;;;;;;;5.88;3.80;;;22.60;42.40;;;;;;6156642;28;81355;-68
2021/10/21 12:49:58;;;;;;;6.60;3.85;;;22.40;42.30;;;;;;6156656;28;80931;-69
2021/10/21 12:52:58;;;;;;;5.82;3.17;;;22.30;42.40;;;;;;6152603;28;80907;-66
2021/10/21 12:56:00;;;;;;;7.93;4.15;;;22.40;42.40;;;;;;6160283;28;81444;-66
2021/10/21 12:59:00;;;;;;;4.93;3.42;;;22.20;42.50;;;;;;6159953;28;80407;-66
2021/10/21 13:02:01;;;;;;;5.38;3.83;;;22.10;42.50;;;;;;6159263;28;81784;-67
2021/10/21 13:05:03;;;;;;;4.28;3.30;;;22.20;42.90;;;;;;6142599;28;81108;-67
2021/10/21 13:08:03;;;;;;;6.40;3.47;;;22.50;42.50;;;;;;6159308;28;81955;-66
2021/10/21 13:11:05;;;;;;;7.13;3.65;;;22.90;42.30;;;;;;6160962;28;80803;-66
2021/10/21 13:14:05;;;;;;;4.60;3.08;;;23.00;42.30;;;;;;6155945;28;81553;-66
2021/10/21 13:17:06;;;;;;;6.20;3.10;;;23.20;42.10;;;;;;6148828;28;80687;-66
2021/10/21 13:20:06;;;;;;;5.40;3.35;;;23.20;41.30;;;;;;6153832;28;80602;-66
2021/10/21 13:23:07;;;;;;;9.75;2.90;;;23.00;41.60;;;;;;6156962;28;80834;-67
2021/10/21 13:26:07;;;;;;;9.80;4.53;;;22.80;42.10;;;;;;6159455;28;80519;-67
2021/10/21 13:29:08;;;;;;;7.82;3.22;;;22.60;42.50;;;;;;6143046;28;81644;-66
2021/10/21 13:32:08;;;;;;;8.27;3.72;;;22.40;42.70;;;;;;6158779;28;80282;-66
2021/10/21 13:35:09;;;;;;;4.22;3.15;;;22.50;42.60;;;;;;6158798;28;80942;-67
2021/10/21 13:38:13;;;;;;;5.18;3.25;;;22.30;42.90;;;;;;6158102;28;81442;-66
2021/10/21 13:41:13;;;;;;;4.97;3.33;;;22.10;42.80;;;;;;6161716;28;80575;-66
2021/10/21 13:44:14;;;;;;;10.23;3.25;;;22.00;42.90;;;;;;6156426;28;83384;-64
2021/10/21 13:47:14;;;;;;;8.82;4.15;;;22.00;43.10;;;;;;6160118;28;80967;-63
2021/10/21 13:50:15;;;;;;;7.50;3.42;;;22.20;43.20;;;;;;6159690;28;81565;-68
2021/10/21 13:53:15;;;;;;;5.90;3.10;;;22.10;42.90;;;;;;6158247;28;80510;-67
2021/10/21 13:56:16;;;;;;;8.40;3.05;;;22.10;43.20;;;;;;6160107;28;80474;-67
2021/10/21 13:59:16;;;;;;;9.65;3.15;;;22.20;43.40;;;;;;6160881;28;82251;-68
2021/10/21 14:02:17;;;;;;;8.13;2.92;;;22.50;43.50;;;;;;6158388;28;81659;-67
2021/10/21 14:05:17;;;;;;;11.45;4.18;;;22.70;43.10;;;;;;6159092;28;80474;-67
2021/10/21 14:08:18;;;;;;;5.50;3.42;;;22.90;42.90;;;;;;6158504;28;82210;-67
2021/10/21 14:11:19;;;;;;;5.85;2.95;;;22.90;43.00;;;;;;6158286;28;80435;-67
2021/10/21 14:14:19;;;;;;;9.13;2.97;;;23.00;43.00;;;;;;6159207;28;80653;-66
2021/10/21 14:17:20;;;;;;;5.15;3.20;;;23.00;42.80;;;;;;6159735;28;80499;-68
2021/10/21 14:20:20;;;;;;;4.75;3.08;;;23.00;42.80;;;;;;6158142;28;80339;-70
2021/10/21 14:23:21;;;;;;;6.30;3.08;;;23.00;42.80;;;;;;6159467;28;87665;-67
2021/10/21 14:26:21;;;;;;;6.40;3.35;;;23.10;42.90;;;;;;6157961;28;80937;-67
2021/10/21 14:29:24;;;;;;;4.70;3.22;;;23.10;42.80;;;;;;6158425;28;81372;-68
2021/10/21 14:32:25;;;;;;;4.60;3.47;;;23.20;42.70;;;;;;6159425;28;80870;-68
2021/10/21 14:35:25;;;;;;;8.23;3.67;;;23.30;42.60;;;;;;6141265;28;80756;-68
2021/10/21 14:38:26;;;;;;;4.85;3.15;;;23.40;42.70;;;;;;6159431;28;80900;-68
2021/10/21 14:41:26;;;;;;;9.10;3.33;;;23.60;42.10;;;;;;6156208;28;80349;-68
2021/10/21 14:44:27;;;;;;;6.13;3.25;;;23.70;41.90;;;;;;6141842;28;80917;-68
2021/10/21 14:47:28;;;;;;;10.40;3.30;;;23.80;42.00;;;;;;6157950;28;80502;-67
2021/10/21 14:50:28;;;;;;;5.68;3.40;;;23.80;42.20;;;;;;6158331;28;80960;-66
2021/10/21 14:53:29;;;;;;;7.57;3.28;;;23.90;42.10;;;;;;6158380;28;80314;-68
2021/10/21 14:56:29;;;;;;;5.25;3.58;;;23.90;42.20;;;;;;6159152;28;81026;-68
2021/10/21 14:59:30;;;;;;;5.20;3.00;;;24.00;42.20;;;;;;6142247;28;81666;-67
2021/10/21 15:02:30;;;;;;;3.67;2.63;;;23.90;42.50;;;;;;6154207;28;80379;-66
2021/10/21 15:05:31;;;;;;;5.60;3.15;;;24.00;42.10;;;;;;6157854;28;84309;-67
2021/10/21 15:15:42;;;;;;;7.43;3.28;;;24.00;42.00;;;;;;6153455;28;80585;-66
2021/10/21 15:25:18;;;;;;;7.82;3.22;;;24.00;41.50;;;;;;6155757;28;81147;-68
2021/10/21 15:28:18;;;;;;;9.32;3.08;;;24.00;41.50;;;;;;6157378;28;80804;-68
2021/10/21 15:31:19;;;;;;;5.60;2.65;;;24.00;41.50;;;;;;6155520;28;81519;-67
2021/10/21 15:34:20;;;;;;;8.70;3.10;;;24.00;41.40;;;;;;6154640;28;80666;-68
2021/10/21 15:37:20;;;;;;;7.05;3.03;;;24.00;41.80;;;;;;6156638;28;81575;-67
2021/10/21 15:40:21;;;;;;;4.20;2.65;;;24.00;41.50;;;;;;6155162;28;82630;-67
2021/10/21 15:43:21;;;;;;;5.43;2.72;;;24.00;41.20;;;;;;6155374;28;84981;-68
2021/10/21 15:46:22;;;;;;;9.40;3.83;;;24.00;41.40;;;;;;6156705;28;80617;-68
2021/10/21 16:12:21;;;;;;;4.45;2.80;;;24.30;41.40;;;;;;6160613;28;83951;-67